sensor_id;sensor_type;location;lat;lon;timestamp;P1;durP1;ratioP1;P2;durP2;ratioP2
57842;SDS011;43673;51.058;3.734;2023-05-09T00:00:14;20.50;;;11.63;;
57842;SDS011;43673;51.058;3.734;2023-05-09T00:02:40;17.35;;;12.73;;
57842;SDS011;43673;51.058;3.734;2023-05-09T00:05:09;18.80;;;11.55;;
57842;SDS011;43673;51.058;3.734;2023-05-09T00:07:36;19.02;;;13.02;;
57842;SDS011;43673;51.058;3.734;2023-05-09T00:10:01;18.63;;;11.02;;
57842;SDS011;43673;51.058;3.734;2023-05-09T00:12:28;21.02;;;12.07;;
57842;SDS011;43673;51.058;3.734;2023-05-09T00:14:54;17.73;;;11.30;;
57842;SDS011;43673;51.058;3.734;2023-05-09T00:17:21;21.75;;;13.18;;
57842;SDS011;43673;51.058;3.734;2023-05-09T00:19:48;17.70;;;12.38;;
57842;SDS011;43673;51.058;3.734;2023-05-09T00:22:15;22.27;;;12.10;;
57842;SDS011;43673;51.058;3.734;2023-05-09T00:24:41;20.20;;;11.32;;
57842;SDS011;43673;51.058;3.734;2023-05-09T00:27:07;17.45;;;11.93;;
57842;SDS011;43673;51.058;3.734;2023-05-09T00:29:34;17.20;;;11.38;;
57842;SDS011;43673;51.058;3.734;2023-05-09T00:32:00;20.17;;;11.38;;
57842;SDS011;43673;51.058;3.734;2023-05-09T00:34:26;17.15;;;12.93;;
57842;SDS011;43673;51.058;3.734;2023-05-09T00:36:51;20.00;;;12.68;;
57842;SDS011;43673;51.058;3.734;2023-05-09T00:39:17;17.02;;;11.90;;
57842;SDS011;43673;51.058;3.734;2023-05-09T00:41:43;19.63;;;11.82;;
57842;SDS011;43673;51.058;3.734;2023-05-09T00:44:08;17.65;;;12.27;;
57842;SDS011;43673;51.058;3.734;2023-05-09T00:46:34;18.60;;;12.70;;
57842;SDS011;43673;51.058;3.734;2023-05-09T00:49:00;20.98;;;11.82;;
57842;SDS011;43673;51.058;3.734;2023-05-09T00:51:26;17.92;;;12.13;;
57842;SDS011;43673;51.058;3.734;2023-05-09T00:53:52;21.85;;;13.20;;
57842;SDS011;43673;51.058;3.734;2023-05-09T00:56:18;22.70;;;12.90;;
57842;SDS011;43673;51.058;3.734;2023-05-09T00:58:44;18.55;;;11.45;;
57842;SDS011;43673;51.058;3.734;2023-05-09T01:01:09;17.33;;;11.48;;
57842;SDS011;43673;51.058;3.734;2023-05-09T01:03:37;14.57;;;11.10;;
57842;SDS011;43673;51.058;3.734;2023-05-09T01:06:16;18.67;;;12.40;;
57842;SDS011;43673;51.058;3.734;2023-05-09T01:08:56;18.05;;;11.77;;
57842;SDS011;43673;51.058;3.734;2023-05-09T01:11:44;18.65;;;11.25;;
57842;SDS011;43673;51.058;3.734;2023-05-09T01:17:03;16.95;;;12.43;;
57842;SDS011;43673;51.058;3.734;2023-05-09T01:22:06;18.80;;;11.85;;
57842;SDS011;43673;51.058;3.734;2023-05-09T01:27:20;20.95;;;13.60;;
57842;SDS011;43673;51.058;3.734;2023-05-09T01:29:55;16.95;;;12.02;;
57842;SDS011;43673;51.058;3.734;2023-05-09T01:32:26;19.98;;;11.98;;
57842;SDS011;43673;51.058;3.734;2023-05-09T01:34:55;17.20;;;11.23;;
57842;SDS011;43673;51.058;3.734;2023-05-09T01:37:33;17.63;;;11.80;;
57842;SDS011;43673;51.058;3.734;2023-05-09T01:42:44;16.92;;;10.90;;
57842;SDS011;43673;51.058;3.734;2023-05-09T01:45:15;17.45;;;11.55;;
57842;SDS011;43673;51.058;3.734;2023-05-09T01:47:42;15.90;;;12.95;;
57842;SDS011;43673;51.058;3.734;2023-05-09T01:50:09;17.25;;;12.70;;
57842;SDS011;43673;51.058;3.734;2023-05-09T01:52:36;19.38;;;12.35;;
57842;SDS011;43673;51.058;3.734;2023-05-09T01:55:04;15.85;;;12.27;;
57842;SDS011;43673;51.058;3.734;2023-05-09T01:57:31;16.90;;;13.05;;
57842;SDS011;43673;51.058;3.734;2023-05-09T01:59:59;15.00;;;11.23;;
57842;SDS011;43673;51.058;3.734;2023-05-09T02:02:26;14.20;;;11.07;;
57842;SDS011;43673;51.058;3.734;2023-05-09T02:04:53;15.90;;;11.68;;
57842;SDS011;43673;51.058;3.734;2023-05-09T02:07:21;19.25;;;11.20;;
57842;SDS011;43673;51.058;3.734;2023-05-09T02:09:48;12.90;;;11.15;;
57842;SDS011;43673;51.058;3.734;2023-05-09T02:12:16;15.85;;;10.93;;
57842;SDS011;43673;51.058;3.734;2023-05-09T02:14:41;13.60;;;9.70;;
57842;SDS011;43673;51.058;3.734;2023-05-09T02:17:15;17.55;;;11.00;;
57842;SDS011;43673;51.058;3.734;2023-05-09T02:19:41;18.45;;;11.18;;
57842;SDS011;43673;51.058;3.734;2023-05-09T02:22:07;15.52;;;11.68;;
57842;SDS011;43673;51.058;3.734;2023-05-09T02:24:34;13.80;;;11.15;;
57842;SDS011;43673;51.058;3.734;2023-05-09T02:27:03;18.60;;;11.63;;
57842;SDS011;43673;51.058;3.734;2023-05-09T02:29:37;15.35;;;12.30;;
57842;SDS011;43673;51.058;3.734;2023-05-09T02:32:29;22.58;;;12.23;;
57842;SDS011;43673;51.058;3.734;2023-05-09T02:34:55;17.15;;;11.10;;
57842;SDS011;43673;51.058;3.734;2023-05-09T02:37:23;13.95;;;10.48;;
57842;SDS011;43673;51.058;3.734;2023-05-09T02:39:49;15.77;;;11.43;;
57842;SDS011;43673;51.058;3.734;2023-05-09T02:42:18;16.73;;;11.57;;
57842;SDS011;43673;51.058;3.734;2023-05-09T02:44:46;16.45;;;11.63;;
57842;SDS011;43673;51.058;3.734;2023-05-09T02:47:12;16.17;;;11.18;;
57842;SDS011;43673;51.058;3.734;2023-05-09T02:49:45;16.13;;;10.82;;
57842;SDS011;43673;51.058;3.734;2023-05-09T02:52:15;19.23;;;11.88;;
57842;SDS011;43673;51.058;3.734;2023-05-09T02:54:41;15.80;;;11.23;;
57842;SDS011;43673;51.058;3.734;2023-05-09T02:57:06;17.13;;;12.32;;
57842;SDS011;43673;51.058;3.734;2023-05-09T02:59:32;19.05;;;11.90;;
57842;SDS011;43673;51.058;3.734;2023-05-09T03:01:58;14.20;;;10.65;;
57842;SDS011;43673;51.058;3.734;2023-05-09T03:04:23;15.32;;;11.15;;
57842;SDS011;43673;51.058;3.734;2023-05-09T03:06:49;17.02;;;11.27;;
57842;SDS011;43673;51.058;3.734;2023-05-09T03:09:15;15.63;;;11.32;;
57842;SDS011;43673;51.058;3.734;2023-05-09T03:11:41;17.05;;;11.40;;
57842;SDS011;43673;51.058;3.734;2023-05-09T03:14:07;15.20;;;10.38;;
57842;SDS011;43673;51.058;3.734;2023-05-09T03:16:33;12.98;;;11.13;;
57842;SDS011;43673;51.058;3.734;2023-05-09T03:18:59;21.00;;;12.48;;
57842;SDS011;43673;51.058;3.734;2023-05-09T03:21:24;17.02;;;12.43;;
57842;SDS011;43673;51.058;3.734;2023-05-09T03:23:50;16.50;;;11.90;;
57842;SDS011;43673;51.058;3.734;2023-05-09T03:26:16;21.83;;;14.45;;
57842;SDS011;43673;51.058;3.734;2023-05-09T03:28:42;25.50;;;16.83;;
57842;SDS011;43673;51.058;3.734;2023-05-09T03:31:07;18.70;;;12.40;;
57842;SDS011;43673;51.058;3.734;2023-05-09T03:33:33;17.10;;;12.95;;
57842;SDS011;43673;51.058;3.734;2023-05-09T03:35:59;18.95;;;12.50;;
57842;SDS011;43673;51.058;3.734;2023-05-09T03:38:25;19.23;;;12.98;;
57842;SDS011;43673;51.058;3.734;2023-05-09T03:40:52;19.77;;;13.63;;
57842;SDS011;43673;51.058;3.734;2023-05-09T03:43:18;19.88;;;13.43;;
57842;SDS011;43673;51.058;3.734;2023-05-09T03:45:43;21.42;;;14.50;;
57842;SDS011;43673;51.058;3.734;2023-05-09T03:48:09;18.65;;;13.52;;
57842;SDS011;43673;51.058;3.734;2023-05-09T03:50:35;20.52;;;14.65;;
57842;SDS011;43673;51.058;3.734;2023-05-09T03:53:02;21.60;;;12.95;;
57842;SDS011;43673;51.058;3.734;2023-05-09T03:55:28;18.08;;;12.98;;
57842;SDS011;43673;51.058;3.734;2023-05-09T03:57:54;29.55;;;17.42;;
57842;SDS011;43673;51.058;3.734;2023-05-09T04:00:20;25.52;;;16.88;;
57842;SDS011;43673;51.058;3.734;2023-05-09T04:02:46;20.27;;;14.07;;
57842;SDS011;43673;51.058;3.734;2023-05-09T04:05:12;17.15;;;12.98;;
57842;SDS011;43673;51.058;3.734;2023-05-09T04:07:38;18.05;;;12.50;;
57842;SDS011;43673;51.058;3.734;2023-05-09T04:10:04;22.60;;;14.80;;
57842;SDS011;43673;51.058;3.734;2023-05-09T04:12:31;19.42;;;12.90;;
57842;SDS011;43673;51.058;3.734;2023-05-09T04:14:57;23.13;;;12.63;;
57842;SDS011;43673;51.058;3.734;2023-05-09T04:17:23;18.88;;;12.75;;
57842;SDS011;43673;51.058;3.734;2023-05-09T04:19:48;22.33;;;13.40;;
57842;SDS011;43673;51.058;3.734;2023-05-09T04:22:14;22.42;;;14.15;;
57842;SDS011;43673;51.058;3.734;2023-05-09T04:24:40;23.90;;;13.93;;
57842;SDS011;43673;51.058;3.734;2023-05-09T04:27:08;28.17;;;16.98;;
57842;SDS011;43673;51.058;3.734;2023-05-09T04:29:34;19.08;;;13.55;;
57842;SDS011;43673;51.058;3.734;2023-05-09T04:32:00;20.15;;;12.52;;
57842;SDS011;43673;51.058;3.734;2023-05-09T04:34:26;19.63;;;12.65;;
57842;SDS011;43673;51.058;3.734;2023-05-09T04:36:53;20.85;;;11.55;;
57842;SDS011;43673;51.058;3.734;2023-05-09T04:39:19;18.38;;;13.95;;
57842;SDS011;43673;51.058;3.734;2023-05-09T04:41:45;14.98;;;11.43;;
57842;SDS011;43673;51.058;3.734;2023-05-09T04:44:15;21.45;;;13.32;;
57842;SDS011;43673;51.058;3.734;2023-05-09T04:46:41;18.20;;;11.60;;
57842;SDS011;43673;51.058;3.734;2023-05-09T04:49:07;19.67;;;12.20;;
57842;SDS011;43673;51.058;3.734;2023-05-09T04:51:33;20.00;;;12.18;;
57842;SDS011;43673;51.058;3.734;2023-05-09T04:53:58;18.40;;;11.73;;
57842;SDS011;43673;51.058;3.734;2023-05-09T04:56:24;16.40;;;11.32;;
57842;SDS011;43673;51.058;3.734;2023-05-09T04:58:50;48.58;;;28.23;;
57842;SDS011;43673;51.058;3.734;2023-05-09T05:01:16;19.75;;;13.45;;
57842;SDS011;43673;51.058;3.734;2023-05-09T05:03:42;19.45;;;12.82;;
57842;SDS011;43673;51.058;3.734;2023-05-09T05:06:08;16.40;;;13.27;;
57842;SDS011;43673;51.058;3.734;2023-05-09T05:08:34;15.23;;;12.13;;
57842;SDS011;43673;51.058;3.734;2023-05-09T05:10:59;23.08;;;15.65;;
57842;SDS011;43673;51.058;3.734;2023-05-09T05:13:26;18.17;;;13.80;;
57842;SDS011;43673;51.058;3.734;2023-05-09T05:15:51;18.92;;;13.13;;
57842;SDS011;43673;51.058;3.734;2023-05-09T05:18:17;19.17;;;13.55;;
57842;SDS011;43673;51.058;3.734;2023-05-09T05:20:43;20.85;;;13.73;;
57842;SDS011;43673;51.058;3.734;2023-05-09T05:23:08;19.25;;;13.27;;
57842;SDS011;43673;51.058;3.734;2023-05-09T05:25:34;18.92;;;12.65;;
57842;SDS011;43673;51.058;3.734;2023-05-09T05:28:00;22.50;;;14.07;;
57842;SDS011;43673;51.058;3.734;2023-05-09T05:30:26;18.33;;;13.63;;
57842;SDS011;43673;51.058;3.734;2023-05-09T05:32:52;26.58;;;14.73;;
57842;SDS011;43673;51.058;3.734;2023-05-09T05:35:17;22.92;;;13.07;;
57842;SDS011;43673;51.058;3.734;2023-05-09T05:37:45;18.25;;;12.82;;
57842;SDS011;43673;51.058;3.734;2023-05-09T05:40:11;18.85;;;13.25;;
57842;SDS011;43673;51.058;3.734;2023-05-09T05:42:37;23.85;;;15.90;;
57842;SDS011;43673;51.058;3.734;2023-05-09T05:45:03;21.73;;;13.73;;
57842;SDS011;43673;51.058;3.734;2023-05-09T05:47:32;20.90;;;13.90;;
57842;SDS011;43673;51.058;3.734;2023-05-09T05:49:59;18.73;;;12.23;;
57842;SDS011;43673;51.058;3.734;2023-05-09T05:52:25;16.40;;;13.10;;
57842;SDS011;43673;51.058;3.734;2023-05-09T05:54:52;18.75;;;14.20;;
57842;SDS011;43673;51.058;3.734;2023-05-09T05:57:18;19.23;;;14.30;;
57842;SDS011;43673;51.058;3.734;2023-05-09T05:59:47;21.23;;;14.50;;
57842;SDS011;43673;51.058;3.734;2023-05-09T06:02:15;22.15;;;14.32;;
57842;SDS011;43673;51.058;3.734;2023-05-09T06:04:41;17.77;;;12.63;;
57842;SDS011;43673;51.058;3.734;2023-05-09T06:07:08;16.88;;;13.85;;
57842;SDS011;43673;51.058;3.734;2023-05-09T06:09:34;23.30;;;13.60;;
57842;SDS011;43673;51.058;3.734;2023-05-09T06:12:00;17.35;;;13.85;;
57842;SDS011;43673;51.058;3.734;2023-05-09T06:14:26;18.58;;;14.88;;
57842;SDS011;43673;51.058;3.734;2023-05-09T06:16:52;19.42;;;13.95;;
57842;SDS011;43673;51.058;3.734;2023-05-09T06:19:18;25.55;;;14.57;;
57842;SDS011;43673;51.058;3.734;2023-05-09T06:21:44;19.27;;;13.75;;
57842;SDS011;43673;51.058;3.734;2023-05-09T06:24:09;18.88;;;14.35;;
57842;SDS011;43673;51.058;3.734;2023-05-09T06:26:35;21.02;;;14.23;;
57842;SDS011;43673;51.058;3.734;2023-05-09T06:29:02;22.85;;;13.98;;
57842;SDS011;43673;51.058;3.734;2023-05-09T06:31:29;26.45;;;12.90;;
57842;SDS011;43673;51.058;3.734;2023-05-09T06:33:55;17.33;;;13.80;;
57842;SDS011;43673;51.058;3.734;2023-05-09T06:36:21;16.38;;;12.45;;
57842;SDS011;43673;51.058;3.734;2023-05-09T06:38:47;17.38;;;12.68;;
57842;SDS011;43673;51.058;3.734;2023-05-09T06:41:12;18.40;;;12.75;;
57842;SDS011;43673;51.058;3.734;2023-05-09T06:43:38;16.70;;;11.90;;
57842;SDS011;43673;51.058;3.734;2023-05-09T06:46:04;18.83;;;12.93;;
57842;SDS011;43673;51.058;3.734;2023-05-09T06:48:29;15.63;;;11.95;;
57842;SDS011;43673;51.058;3.734;2023-05-09T06:50:55;20.73;;;13.18;;
57842;SDS011;43673;51.058;3.734;2023-05-09T06:53:21;19.95;;;13.05;;
57842;SDS011;43673;51.058;3.734;2023-05-09T06:55:46;21.65;;;15.20;;
57842;SDS011;43673;51.058;3.734;2023-05-09T06:58:12;18.55;;;12.50;;
57842;SDS011;43673;51.058;3.734;2023-05-09T07:00:38;18.20;;;12.07;;
57842;SDS011;43673;51.058;3.734;2023-05-09T07:03:04;22.30;;;12.57;;
57842;SDS011;43673;51.058;3.734;2023-05-09T07:05:31;14.80;;;11.40;;
57842;SDS011;43673;51.058;3.734;2023-05-09T07:07:57;17.85;;;11.75;;
57842;SDS011;43673;51.058;3.734;2023-05-09T07:10:23;17.52;;;11.50;;
57842;SDS011;43673;51.058;3.734;2023-05-09T07:12:49;18.15;;;11.82;;
57842;SDS011;43673;51.058;3.734;2023-05-09T07:15:15;20.23;;;11.55;;
57842;SDS011;43673;51.058;3.734;2023-05-09T07:17:40;18.42;;;11.18;;
57842;SDS011;43673;51.058;3.734;2023-05-09T07:20:06;18.70;;;11.10;;
57842;SDS011;43673;51.058;3.734;2023-05-09T07:22:32;17.60;;;11.07;;
57842;SDS011;43673;51.058;3.734;2023-05-09T07:24:58;14.82;;;11.30;;
57842;SDS011;43673;51.058;3.734;2023-05-09T07:27:24;15.52;;;10.77;;
57842;SDS011;43673;51.058;3.734;2023-05-09T07:29:49;13.07;;;10.18;;
57842;SDS011;43673;51.058;3.734;2023-05-09T07:32:17;16.88;;;11.32;;
57842;SDS011;43673;51.058;3.734;2023-05-09T07:34:43;13.77;;;10.25;;
57842;SDS011;43673;51.058;3.734;2023-05-09T07:37:09;20.95;;;11.50;;
57842;SDS011;43673;51.058;3.734;2023-05-09T07:39:34;21.20;;;11.68;;
57842;SDS011;43673;51.058;3.734;2023-05-09T07:42:00;19.50;;;11.43;;
57842;SDS011;43673;51.058;3.734;2023-05-09T07:44:26;15.68;;;10.80;;
57842;SDS011;43673;51.058;3.734;2023-05-09T07:46:51;14.23;;;10.43;;
57842;SDS011;43673;51.058;3.734;2023-05-09T07:49:19;18.27;;;11.98;;
57842;SDS011;43673;51.058;3.734;2023-05-09T07:51:45;18.70;;;11.23;;
57842;SDS011;43673;51.058;3.734;2023-05-09T07:54:11;16.73;;;11.60;;
57842;SDS011;43673;51.058;3.734;2023-05-09T07:56:36;15.95;;;12.02;;
57842;SDS011;43673;51.058;3.734;2023-05-09T07:59:02;19.08;;;12.70;;
57842;SDS011;43673;51.058;3.734;2023-05-09T08:01:28;15.45;;;11.18;;
57842;SDS011;43673;51.058;3.734;2023-05-09T08:03:53;14.90;;;10.77;;
57842;SDS011;43673;51.058;3.734;2023-05-09T08:06:19;16.40;;;11.75;;
57842;SDS011;43673;51.058;3.734;2023-05-09T08:08:45;16.35;;;10.50;;
57842;SDS011;43673;51.058;3.734;2023-05-09T08:11:10;12.52;;;9.60;;
57842;SDS011;43673;51.058;3.734;2023-05-09T08:13:36;16.25;;;10.65;;
57842;SDS011;43673;51.058;3.734;2023-05-09T08:16:02;13.30;;;9.13;;
57842;SDS011;43673;51.058;3.734;2023-05-09T08:18:28;16.42;;;9.80;;
57842;SDS011;43673;51.058;3.734;2023-05-09T08:20:53;13.07;;;10.05;;
57842;SDS011;43673;51.058;3.734;2023-05-09T08:23:19;12.48;;;9.50;;
57842;SDS011;43673;51.058;3.734;2023-05-09T08:25:45;15.82;;;9.20;;
57842;SDS011;43673;51.058;3.734;2023-05-09T08:28:10;17.52;;;10.25;;
57842;SDS011;43673;51.058;3.734;2023-05-09T08:30:36;14.02;;;9.70;;
57842;SDS011;43673;51.058;3.734;2023-05-09T08:33:02;19.58;;;10.25;;
57842;SDS011;43673;51.058;3.734;2023-05-09T08:35:27;17.60;;;10.88;;
57842;SDS011;43673;51.058;3.734;2023-05-09T08:37:53;13.00;;;8.73;;
57842;SDS011;43673;51.058;3.734;2023-05-09T08:40:19;16.25;;;10.93;;
57842;SDS011;43673;51.058;3.734;2023-05-09T08:42:45;14.02;;;9.00;;
57842;SDS011;43673;51.058;3.734;2023-05-09T08:45:13;13.15;;;9.32;;
57842;SDS011;43673;51.058;3.734;2023-05-09T08:47:40;12.75;;;9.25;;
57842;SDS011;43673;51.058;3.734;2023-05-09T08:50:06;13.70;;;8.90;;
57842;SDS011;43673;51.058;3.734;2023-05-09T08:52:33;18.75;;;10.55;;
57842;SDS011;43673;51.058;3.734;2023-05-09T08:55:00;17.05;;;10.00;;
57842;SDS011;43673;51.058;3.734;2023-05-09T08:57:29;11.90;;;8.57;;
57842;SDS011;43673;51.058;3.734;2023-05-09T08:59:58;12.73;;;8.10;;
57842;SDS011;43673;51.058;3.734;2023-05-09T09:02:24;11.43;;;9.13;;
57842;SDS011;43673;51.058;3.734;2023-05-09T09:04:50;15.20;;;8.18;;
57842;SDS011;43673;51.058;3.734;2023-05-09T09:07:15;15.73;;;9.55;;
57842;SDS011;43673;51.058;3.734;2023-05-09T09:09:45;10.10;;;8.10;;
57842;SDS011;43673;51.058;3.734;2023-05-09T09:12:13;12.77;;;9.27;;
57842;SDS011;43673;51.058;3.734;2023-05-09T09:14:41;15.40;;;8.93;;
57842;SDS011;43673;51.058;3.734;2023-05-09T09:17:13;10.73;;;8.65;;
57842;SDS011;43673;51.058;3.734;2023-05-09T09:19:43;11.73;;;7.95;;
57842;SDS011;43673;51.058;3.734;2023-05-09T09:22:12;23.63;;;10.93;;
57842;SDS011;43673;51.058;3.734;2023-05-09T09:24:42;11.43;;;9.13;;
57842;SDS011;43673;51.058;3.734;2023-05-09T09:27:08;22.23;;;8.27;;
57842;SDS011;43673;51.058;3.734;2023-05-09T09:29:34;11.63;;;7.88;;
57842;SDS011;43673;51.058;3.734;2023-05-09T09:32:03;9.48;;;6.70;;
57842;SDS011;43673;51.058;3.734;2023-05-09T09:34:30;9.07;;;6.22;;
57842;SDS011;43673;51.058;3.734;2023-05-09T09:36:56;6.68;;;5.45;;
57842;SDS011;43673;51.058;3.734;2023-05-09T09:39:22;9.85;;;5.88;;
57842;SDS011;43673;51.058;3.734;2023-05-09T09:41:48;5.88;;;5.28;;
57842;SDS011;43673;51.058;3.734;2023-05-09T09:44:18;14.77;;;5.45;;
57842;SDS011;43673;51.058;3.734;2023-05-09T09:46:46;7.55;;;4.97;;
57842;SDS011;43673;51.058;3.734;2023-05-09T09:49:22;6.95;;;5.30;;
57842;SDS011;43673;51.058;3.734;2023-05-09T09:51:50;8.90;;;5.45;;
57842;SDS011;43673;51.058;3.734;2023-05-09T09:54:17;10.43;;;6.30;;
57842;SDS011;43673;51.058;3.734;2023-05-09T09:56:44;11.13;;;6.55;;
57842;SDS011;43673;51.058;3.734;2023-05-09T09:59:15;5.95;;;5.35;;
57842;SDS011;43673;51.058;3.734;2023-05-09T10:04:24;6.20;;;5.43;;
57842;SDS011;43673;51.058;3.734;2023-05-09T10:06:54;8.93;;;6.22;;
57842;SDS011;43673;51.058;3.734;2023-05-09T10:09:21;7.72;;;6.10;;
57842;SDS011;43673;51.058;3.734;2023-05-09T10:14:17;8.77;;;6.40;;
57842;SDS011;43673;51.058;3.734;2023-05-09T10:16:47;8.27;;;7.03;;
57842;SDS011;43673;51.058;3.734;2023-05-09T10:19:18;10.65;;;7.28;;
57842;SDS011;43673;51.058;3.734;2023-05-09T10:21:51;10.23;;;8.02;;
57842;SDS011;43673;51.058;3.734;2023-05-09T10:24:20;10.38;;;7.95;;
57842;SDS011;43673;51.058;3.734;2023-05-09T10:27:03;8.25;;;6.90;;
57842;SDS011;43673;51.058;3.734;2023-05-09T10:29:33;8.77;;;7.72;;
57842;SDS011;43673;51.058;3.734;2023-05-09T10:32:04;12.18;;;7.97;;
57842;SDS011;43673;51.058;3.734;2023-05-09T10:34:41;9.80;;;6.88;;
57842;SDS011;43673;51.058;3.734;2023-05-09T10:37:11;13.27;;;7.15;;
57842;SDS011;43673;51.058;3.734;2023-05-09T10:39:38;9.55;;;6.97;;
57842;SDS011;43673;51.058;3.734;2023-05-09T10:42:06;7.68;;;6.88;;
57842;SDS011;43673;51.058;3.734;2023-05-09T10:44:32;8.27;;;6.32;;
57842;SDS011;43673;51.058;3.734;2023-05-09T10:46:59;9.63;;;7.10;;
57842;SDS011;43673;51.058;3.734;2023-05-09T10:49:26;8.70;;;6.53;;
57842;SDS011;43673;51.058;3.734;2023-05-09T10:51:52;9.60;;;7.32;;
57842;SDS011;43673;51.058;3.734;2023-05-09T10:54:25;11.20;;;8.27;;
57842;SDS011;43673;51.058;3.734;2023-05-09T10:56:52;6.85;;;6.03;;
57842;SDS011;43673;51.058;3.734;2023-05-09T10:59:38;8.90;;;6.00;;
57842;SDS011;43673;51.058;3.734;2023-05-09T11:02:10;7.15;;;5.78;;
57842;SDS011;43673;51.058;3.734;2023-05-09T11:04:37;5.95;;;5.35;;
57842;SDS011;43673;51.058;3.734;2023-05-09T11:07:06;8.13;;;5.85;;
57842;SDS011;43673;51.058;3.734;2023-05-09T11:10:30;7.93;;;5.70;;
57842;SDS011;43673;51.058;3.734;2023-05-09T11:12:56;7.65;;;5.05;;
57842;SDS011;43673;51.058;3.734;2023-05-09T11:15:23;5.78;;;4.68;;
57842;SDS011;43673;51.058;3.734;2023-05-09T11:18:05;5.10;;;4.28;;
57842;SDS011;43673;51.058;3.734;2023-05-09T11:20:35;7.10;;;4.35;;
57842;SDS011;43673;51.058;3.734;2023-05-09T11:23:07;5.88;;;4.57;;
57842;SDS011;43673;51.058;3.734;2023-05-09T11:25:34;7.25;;;4.55;;
57842;SDS011;43673;51.058;3.734;2023-05-09T11:28:00;6.35;;;3.95;;
57842;SDS011;43673;51.058;3.734;2023-05-09T11:30:39;7.18;;;3.60;;
57842;SDS011;43673;51.058;3.734;2023-05-09T11:33:20;5.18;;;3.67;;
57842;SDS011;43673;51.058;3.734;2023-05-09T11:35:47;4.45;;;3.35;;
57842;SDS011;43673;51.058;3.734;2023-05-09T11:38:39;6.05;;;3.50;;
57842;SDS011;43673;51.058;3.734;2023-05-09T11:41:06;4.65;;;2.92;;
57842;SDS011;43673;51.058;3.734;2023-05-09T11:43:34;5.75;;;3.03;;
57842;SDS011;43673;51.058;3.734;2023-05-09T11:46:01;3.58;;;2.67;;
57842;SDS011;43673;51.058;3.734;2023-05-09T11:48:27;5.72;;;3.90;;
57842;SDS011;43673;51.058;3.734;2023-05-09T11:50:52;3.53;;;3.00;;
57842;SDS011;43673;51.058;3.734;2023-05-09T11:53:18;4.43;;;3.03;;
57842;SDS011;43673;51.058;3.734;2023-05-09T11:55:44;2.60;;;2.40;;
57842;SDS011;43673;51.058;3.734;2023-05-09T11:58:10;2.97;;;2.60;;
57842;SDS011;43673;51.058;3.734;2023-05-09T12:00:36;4.38;;;3.15;;
57842;SDS011;43673;51.058;3.734;2023-05-09T12:03:08;2.75;;;2.22;;
57842;SDS011;43673;51.058;3.734;2023-05-09T12:05:34;4.25;;;3.13;;
57842;SDS011;43673;51.058;3.734;2023-05-09T12:08:04;4.78;;;3.80;;
57842;SDS011;43673;51.058;3.734;2023-05-09T12:10:30;4.95;;;2.97;;
57842;SDS011;43673;51.058;3.734;2023-05-09T12:13:00;2.53;;;2.33;;
57842;SDS011;43673;51.058;3.734;2023-05-09T12:15:26;4.32;;;2.72;;
57842;SDS011;43673;51.058;3.734;2023-05-09T12:18:04;3.72;;;2.88;;
57842;SDS011;43673;51.058;3.734;2023-05-09T12:23:10;2.78;;;2.47;;
57842;SDS011;43673;51.058;3.734;2023-05-09T12:25:36;4.13;;;2.80;;
57842;SDS011;43673;51.058;3.734;2023-05-09T12:28:02;3.05;;;2.47;;
57842;SDS011;43673;51.058;3.734;2023-05-09T12:30:29;3.17;;;2.83;;
57842;SDS011;43673;51.058;3.734;2023-05-09T12:32:56;3.17;;;2.72;;
57842;SDS011;43673;51.058;3.734;2023-05-09T12:35:22;3.15;;;2.88;;
57842;SDS011;43673;51.058;3.734;2023-05-09T12:37:56;6.00;;;2.75;;
57842;SDS011;43673;51.058;3.734;2023-05-09T12:40:22;3.03;;;2.72;;
57842;SDS011;43673;51.058;3.734;2023-05-09T12:42:48;3.30;;;2.42;;
57842;SDS011;43673;51.058;3.734;2023-05-09T12:45:17;3.13;;;2.60;;
57842;SDS011;43673;51.058;3.734;2023-05-09T12:47:44;4.80;;;2.90;;
57842;SDS011;43673;51.058;3.734;2023-05-09T12:50:15;4.03;;;2.58;;
57842;SDS011;43673;51.058;3.734;2023-05-09T12:52:41;4.18;;;2.47;;
57842;SDS011;43673;51.058;3.734;2023-05-09T12:55:08;2.67;;;2.47;;
57842;SDS011;43673;51.058;3.734;2023-05-09T12:57:36;3.70;;;3.40;;
57842;SDS011;43673;51.058;3.734;2023-05-09T13:00:03;4.32;;;2.50;;
57842;SDS011;43673;51.058;3.734;2023-05-09T13:02:34;4.88;;;3.25;;
57842;SDS011;43673;51.058;3.734;2023-05-09T13:05:17;4.82;;;2.75;;
57842;SDS011;43673;51.058;3.734;2023-05-09T13:07:48;5.53;;;2.80;;
57842;SDS011;43673;51.058;3.734;2023-05-09T13:10:22;4.00;;;3.60;;
57842;SDS011;43673;51.058;3.734;2023-05-09T13:12:49;4.53;;;3.00;;
57842;SDS011;43673;51.058;3.734;2023-05-09T13:15:15;5.35;;;3.13;;
57842;SDS011;43673;51.058;3.734;2023-05-09T13:17:44;5.63;;;2.97;;
57842;SDS011;43673;51.058;3.734;2023-05-09T13:22:39;11.02;;;3.40;;
57842;SDS011;43673;51.058;3.734;2023-05-09T13:25:05;3.15;;;2.85;;
57842;SDS011;43673;51.058;3.734;2023-05-09T13:27:33;4.05;;;2.60;;
57842;SDS011;43673;51.058;3.734;2023-05-09T13:29:59;3.10;;;2.50;;
57842;SDS011;43673;51.058;3.734;2023-05-09T13:32:24;3.22;;;2.92;;
57842;SDS011;43673;51.058;3.734;2023-05-09T13:34:50;5.40;;;3.22;;
57842;SDS011;43673;51.058;3.734;2023-05-09T13:37:16;3.75;;;3.13;;
57842;SDS011;43673;51.058;3.734;2023-05-09T13:39:42;3.03;;;2.72;;
57842;SDS011;43673;51.058;3.734;2023-05-09T13:42:08;3.42;;;3.05;;
57842;SDS011;43673;51.058;3.734;2023-05-09T13:44:34;3.45;;;2.78;;
57842;SDS011;43673;51.058;3.734;2023-05-09T13:46:59;2.85;;;2.65;;
57842;SDS011;43673;51.058;3.734;2023-05-09T13:49:25;4.38;;;2.97;;
57842;SDS011;43673;51.058;3.734;2023-05-09T13:51:54;2.75;;;2.42;;
57842;SDS011;43673;51.058;3.734;2023-05-09T13:54:23;2.30;;;2.10;;
57842;SDS011;43673;51.058;3.734;2023-05-09T13:56:49;3.53;;;2.33;;
57842;SDS011;43673;51.058;3.734;2023-05-09T13:59:15;3.70;;;2.67;;
57842;SDS011;43673;51.058;3.734;2023-05-09T14:01:41;5.38;;;3.00;;
57842;SDS011;43673;51.058;3.734;2023-05-09T14:04:07;2.60;;;2.40;;
57842;SDS011;43673;51.058;3.734;2023-05-09T14:06:32;2.92;;;2.35;;
57842;SDS011;43673;51.058;3.734;2023-05-09T14:08:59;4.40;;;2.90;;
57842;SDS011;43673;51.058;3.734;2023-05-09T14:11:25;2.90;;;2.70;;
57842;SDS011;43673;51.058;3.734;2023-05-09T14:13:51;2.42;;;2.22;;
57842;SDS011;43673;51.058;3.734;2023-05-09T14:16:20;3.28;;;2.60;;
57842;SDS011;43673;51.058;3.734;2023-05-09T14:18:46;4.68;;;2.97;;
57842;SDS011;43673;51.058;3.734;2023-05-09T14:21:12;4.10;;;3.53;;
57842;SDS011;43673;51.058;3.734;2023-05-09T14:23:38;3.95;;;3.40;;
57842;SDS011;43673;51.058;3.734;2023-05-09T14:26:05;5.28;;;3.65;;
57842;SDS011;43673;51.058;3.734;2023-05-09T14:28:30;7.78;;;5.78;;
57842;SDS011;43673;51.058;3.734;2023-05-09T14:30:56;6.22;;;3.90;;
57842;SDS011;43673;51.058;3.734;2023-05-09T14:33:22;5.68;;;4.55;;
57842;SDS011;43673;51.058;3.734;2023-05-09T14:35:48;5.63;;;3.72;;
57842;SDS011;43673;51.058;3.734;2023-05-09T14:38:13;4.70;;;4.30;;
57842;SDS011;43673;51.058;3.734;2023-05-09T14:40:40;7.32;;;5.63;;
57842;SDS011;43673;51.058;3.734;2023-05-09T14:43:05;5.18;;;4.55;;
57842;SDS011;43673;51.058;3.734;2023-05-09T14:45:31;9.68;;;6.85;;
57842;SDS011;43673;51.058;3.734;2023-05-09T14:48:06;8.57;;;5.32;;
57842;SDS011;43673;51.058;3.734;2023-05-09T14:50:32;7.50;;;6.25;;
57842;SDS011;43673;51.058;3.734;2023-05-09T14:52:58;8.73;;;7.13;;